Time;durP1;ratioP1;P1;durP2;ratioP2;P2;SDS_P1;SDS_P2;PMS_P1;PMS_P2;Temp;Humidity;BMP_temperature;BMP_pressure;BME280_temperature;BME280_humidity;BME280_pressure;Samples;Min_cycle;Max_cycle;Signal;HPM_P1;HPM_P2
2023/05/30 00:02:22;;;;;;;8.80;5.70;;;16.60;79.50;;;;;;6299376;28;20465;-63
2023/05/30 00:05:26;;;;;;;6.43;5.80;;;16.50;79.60;;;;;;6298943;28;20484;-63
2023/05/30 00:08:29;;;;;;;6.57;5.97;;;16.50;80.00;;;;;;6300304;28;20610;-64
2023/05/30 00:11:32;;;;;;;7.17;6.30;;;16.50;80.50;;;;;;6303697;28;20587;-64
2023/05/30 00:14:37;;;;;;;6.73;6.03;;;16.40;81.20;;;;;;6304073;28;20464;-64
2023/05/30 00:17:40;;;;;;;9.80;5.70;;;16.40;81.30;;;;;;6303888;28;20761;-63
2023/05/30 00:20:44;;;;;;;9.93;6.00;;;16.30;81.90;;;;;;6299232;28;20770;-64
2023/05/30 00:23:49;;;;;;;8.73;6.03;;;16.30;82.30;;;;;;6303651;28;20936;-64
2023/05/30 00:26:52;;;;;;;7.50;6.20;;;16.20;82.60;;;;;;6303589;28;20469;-64
2023/05/30 00:29:56;;;;;;;5.97;5.37;;;16.20;83.00;;;;;;6303368;28;20548;-64
2023/05/30 00:32:59;;;;;;;9.40;6.20;;;16.20;83.30;;;;;;6303411;28;20490;-64
2023/05/30 00:36:03;;;;;;;6.10;5.47;;;16.10;83.50;;;;;;6303388;28;20615;-64
2023/05/30 00:39:07;;;;;;;6.17;5.57;;;16.10;83.90;;;;;;6302708;28;20464;-64
2023/05/30 00:42:10;;;;;;;8.47;4.63;;;16.00;84.00;;;;;;6303159;28;20580;-64
2023/05/30 00:45:14;;;;;;;6.57;5.97;;;16.00;84.40;;;;;;6302735;28;20465;-64
2023/05/30 00:48:18;;;;;;;7.30;4.90;;;16.00;84.10;;;;;;6302835;28;20800;-64
2023/05/30 00:51:22;;;;;;;6.07;5.47;;;15.90;84.50;;;;;;6305237;28;20603;-64
2023/05/30 00:54:25;;;;;;;8.40;4.87;;;15.90;85.70;;;;;;6305622;28;21003;-64
2023/05/30 00:57:29;;;;;;;6.17;5.63;;;15.90;84.90;;;;;;6303719;28;20468;-63
2023/05/30 01:00:38;;;;;;;7.83;6.03;;;15.80;84.90;;;;;;6303056;28;20487;-62
2023/05/30 01:03:42;;;;;;;6.50;5.17;;;15.80;85.00;;;;;;6302861;28;20476;-63
2023/05/30 01:06:46;;;;;;;5.40;4.90;;;15.80;85.30;;;;;;6302670;28;20473;-63
2023/05/30 01:09:50;;;;;;;6.47;5.23;;;15.70;85.50;;;;;;6302566;28;20798;-62
2023/05/30 01:13:04;;;;;;;5.57;4.77;;;15.70;85.80;;;;;;6302655;28;20483;-62
2023/05/30 01:16:14;;;;;;;5.53;5.03;;;15.50;86.40;;;;;;6302706;28;20446;-63
2023/05/30 01:19:46;;;;;;;8.30;5.83;;;15.60;87.10;;;;;;6301679;28;20461;-63
2023/05/30 01:23:27;;;;;;;6.07;5.47;;;15.50;87.30;;;;;;6296297;28;20468;-63
2023/05/30 01:26:45;;;;;;;7.73;5.20;;;15.40;88.40;;;;;;6301986;28;20474;-63
2023/05/30 01:29:51;;;;;;;5.47;4.80;;;15.30;89.00;;;;;;6304145;28;20778;-63
2023/05/30 01:32:55;;;;;;;5.73;5.23;;;15.20;89.70;;;;;;6303160;28;20462;-63
2023/05/30 01:35:58;;;;;;;6.93;5.70;;;15.20;90.00;;;;;;6301893;28;20480;-63
2023/05/30 01:39:01;;;;;;;6.13;5.03;;;15.20;90.20;;;;;;6301530;28;20983;-63
2023/05/30 01:42:14;;;;;;;8.53;5.43;;;15.10;90.50;;;;;;6301913;28;20466;-63
2023/05/30 01:45:24;;;;;;;6.10;5.13;;;15.10;90.70;;;;;;6301848;28;20931;-63
2023/05/30 01:48:38;;;;;;;8.13;5.97;;;15.10;90.80;;;;;;6301879;28;20475;-63
2023/05/30 01:51:48;;;;;;;9.13;5.73;;;15.10;91.00;;;;;;6301291;28;20472;-63
2023/05/30 01:54:58;;;;;;;5.20;4.70;;;15.00;91.20;;;;;;6301498;28;20477;-63
2023/05/30 01:58:03;;;;;;;9.03;5.83;;;15.00;91.50;;;;;;6301373;28;20480;-63
2023/05/30 02:01:08;;;;;;;6.90;5.07;;;15.00;91.70;;;;;;6301692;28;20804;-63
2023/05/30 02:04:12;;;;;;;7.43;5.17;;;15.00;91.80;;;;;;6301371;28;20425;-63
2023/05/30 02:07:15;;;;;;;6.53;5.20;;;15.00;92.00;;;;;;6301283;28;20448;-63
2023/05/30 02:10:19;;;;;;;6.93;5.33;;;14.90;92.20;;;;;;6301439;28;20461;-63
2023/05/30 02:13:22;;;;;;;6.50;5.17;;;14.90;92.30;;;;;;6301034;28;20473;-63
2023/05/30 02:16:27;;;;;;;5.53;4.97;;;14.90;92.70;;;;;;6301469;28;20461;-63
2023/05/30 02:19:30;;;;;;;7.77;5.43;;;14.90;92.40;;;;;;6300758;28;20480;-63
2023/05/30 02:22:33;;;;;;;6.60;5.40;;;14.90;92.60;;;;;;6300354;28;20776;-63
2023/05/30 02:25:36;;;;;;;6.70;5.40;;;14.90;92.80;;;;;;6300569;28;20550;-62
2023/05/30 02:28:40;;;;;;;7.70;5.87;;;14.80;92.70;;;;;;6291778;28;20469;-63
2023/05/30 02:31:47;;;;;;;6.10;5.13;;;14.80;92.80;;;;;;6299486;28;20517;-63
2023/05/30 02:34:50;;;;;;;6.10;5.50;;;14.70;92.90;;;;;;6300488;28;20465;-63
2023/05/30 02:37:56;;;;;;;10.97;6.70;;;14.70;93.20;;;;;;6300148;28;21141;-63
2023/05/30 02:41:00;;;;;;;5.83;5.23;;;14.60;93.20;;;;;;6299906;28;20562;-63
2023/05/30 02:44:03;;;;;;;8.50;5.60;;;14.60;93.30;;;;;;6301617;28;20483;-63
2023/05/30 02:47:09;;;;;;;5.80;4.97;;;14.50;93.70;;;;;;6300900;28;21145;-63
2023/05/30 02:50:12;;;;;;;5.93;5.23;;;14.50;93.90;;;;;;6300446;28;20485;-63
2023/05/30 02:53:15;;;;;;;6.47;5.63;;;14.40;94.10;;;;;;6299952;28;20798;-63
2023/05/30 02:56:18;;;;;;;5.97;4.83;;;14.40;94.40;;;;;;6299961;28;20484;-63
2023/05/30 02:59:22;;;;;;;6.00;4.93;;;14.30;94.30;;;;;;6299848;28;20971;-64
2023/05/30 03:02:26;;;;;;;7.60;5.33;;;14.30;94.30;;;;;;6299512;28;20483;-63
2023/05/30 03:05:29;;;;;;;6.00;4.97;;;14.20;94.50;;;;;;6299574;28;20473;-64
2023/05/30 03:08:36;;;;;;;7.00;4.80;;;14.20;94.70;;;;;;6299860;28;20467;-64
2023/05/30 03:11:39;;;;;;;7.47;4.83;;;14.20;94.80;;;;;;6299774;28;20461;-63
2023/05/30 03:14:42;;;;;;;5.70;5.00;;;14.20;94.80;;;;;;6299998;28;20471;-63
2023/05/30 03:17:46;;;;;;;6.63;6.00;;;14.10;94.80;;;;;;6299613;28;20983;-63
2023/05/30 03:20:50;;;;;;;8.10;4.87;;;14.10;94.90;;;;;;6299766;28;20550;-63
2023/05/30 03:23:53;;;;;;;6.03;5.33;;;14.10;95.00;;;;;;6299295;28;20797;-63
2023/05/30 03:26:56;;;;;;;6.27;5.63;;;14.00;95.20;;;;;;6299423;28;20468;-62
2023/05/30 03:29:59;;;;;;;5.10;4.60;;;14.00;95.40;;;;;;6299355;28;20476;-63
2023/05/30 03:33:04;;;;;;;6.53;5.80;;;14.00;95.50;;;;;;6294951;28;20469;-64
2023/05/30 03:36:08;;;;;;;7.10;5.20;;;14.00;95.70;;;;;;6299394;28;20473;-63
2023/05/30 03:39:12;;;;;;;6.17;5.20;;;14.00;95.60;;;;;;6299515;28;20476;-64
2023/05/30 03:42:15;;;;;;;8.33;5.93;;;14.10;95.60;;;;;;6299189;28;20477;-64
2023/05/30 03:45:19;;;;;;;6.90;5.60;;;14.10;95.60;;;;;;6299390;28;20475;-64
2023/05/30 03:48:23;;;;;;;6.67;5.13;;;14.10;95.70;;;;;;6298816;28;20829;-63
2023/05/30 03:51:27;;;;;;;7.93;6.03;;;14.10;95.80;;;;;;6298972;28;20469;-63
2023/05/30 03:54:30;;;;;;;6.20;5.20;;;14.20;95.80;;;;;;6301929;28;20473;-63
2023/05/30 03:57:34;;;;;;;7.00;5.30;;;14.20;95.70;;;;;;6303841;28;20465;-63
2023/05/30 04:00:37;;;;;;;6.73;5.50;;;14.30;95.80;;;;;;6301809;28;20473;-64
2023/05/30 04:03:43;;;;;;;5.67;5.10;;;14.40;95.60;;;;;;6299044;28;20487;-64
2023/05/30 04:06:49;;;;;;;6.97;5.30;;;14.50;95.60;;;;;;6299184;28;20483;-63
2023/05/30 04:09:52;;;;;;;9.60;5.30;;;14.50;95.50;;;;;;6299213;28;20476;-64
2023/05/30 04:12:55;;;;;;;6.20;5.40;;;14.60;95.80;;;;;;6298922;28;20513;-64
2023/05/30 04:16:00;;;;;;;7.20;5.43;;;14.70;95.30;;;;;;6298756;28;20462;-64
2023/05/30 04:19:05;;;;;;;12.27;6.63;;;14.70;95.20;;;;;;6299290;28;20449;-63
2023/05/30 04:22:08;;;;;;;7.27;5.87;;;14.80;95.30;;;;;;6298446;28;20484;-63
2023/05/30 04:25:11;;;;;;;6.73;5.20;;;15.00;95.10;;;;;;6298761;28;20445;-63
2023/05/30 04:28:16;;;;;;;5.87;5.27;;;15.10;94.90;;;;;;6298548;28;20475;-63
2023/05/30 04:31:20;;;;;;;6.50;5.47;;;15.20;94.70;;;;;;6298918;28;20506;-63
2023/05/30 04:34:25;;;;;;;5.80;4.57;;;15.40;94.60;;;;;;6298582;28;20460;-63
2023/05/30 04:37:28;;;;;;;7.70;5.97;;;15.50;94.30;;;;;;6299165;28;20469;-63
2023/05/30 04:40:32;;;;;;;6.73;6.03;;;15.60;94.10;;;;;;6299545;28;20468;-63
2023/05/30 04:43:35;;;;;;;5.97;5.37;;;15.80;93.90;;;;;;6298390;28;20782;-64
2023/05/30 04:46:38;;;;;;;7.13;5.07;;;15.90;93.50;;;;;;6298476;28;20576;-64
2023/05/30 04:49:44;;;;;;;6.47;5.43;;;16.10;93.30;;;;;;6298321;28;20473;-64
2023/05/30 04:52:47;;;;;;;6.20;5.60;;;16.20;93.30;;;;;;6298656;28;20473;-63
2023/05/30 04:55:50;;;;;;;8.00;6.00;;;16.30;93.20;;;;;;6301805;28;20467;-63
2023/05/30 04:58:54;;;;;;;9.17;6.30;;;16.50;92.90;;;;;;6302611;28;20488;-64
2023/05/30 05:01:57;;;;;;;7.63;6.87;;;16.70;92.80;;;;;;6302806;28;20570;-64
2023/05/30 05:05:01;;;;;;;10.90;6.33;;;16.80;92.50;;;;;;6302744;28;20548;-64
2023/05/30 05:08:05;;;;;;;7.47;5.03;;;17.00;92.30;;;;;;6302534;28;20552;-64
2023/05/30 05:11:09;;;;;;;8.30;5.60;;;17.20;92.10;;;;;;6302255;28;20983;-64
2023/05/30 05:14:12;;;;;;;8.27;5.80;;;17.40;91.90;;;;;;6302625;28;20473;-64
2023/05/30 05:17:15;;;;;;;9.73;6.97;;;17.50;91.30;;;;;;6301827;28;20772;-64
2023/05/30 05:20:20;;;;;;;9.57;5.80;;;17.70;91.20;;;;;;6302669;28;20267;-64
2023/05/30 05:23:23;;;;;;;7.67;6.00;;;17.90;90.90;;;;;;6302814;28;20234;-63
2023/05/30 05:26:26;;;;;;;8.63;6.03;;;18.00;90.50;;;;;;6302530;28;20227;-63
2023/05/30 05:29:30;;;;;;;9.77;5.37;;;18.20;90.20;;;;;;6301850;28;20237;-64
2023/05/30 05:32:36;;;;;;;9.07;6.17;;;18.30;90.00;;;;;;6297890;28;20291;-64
2023/05/30 05:35:41;;;;;;;9.70;6.90;;;18.50;89.90;;;;;;6296496;28;20229;-64
2023/05/30 05:38:44;;;;;;;9.27;5.60;;;18.60;89.20;;;;;;6301890;28;20223;-64
2023/05/30 05:41:47;;;;;;;7.13;5.43;;;18.80;87.80;;;;;;6297099;28;20547;-64
2023/05/30 05:44:50;;;;;;;7.70;6.00;;;19.00;87.40;;;;;;6301289;28;20662;-63
2023/05/30 05:47:53;;;;;;;6.70;5.87;;;19.20;87.00;;;;;;6301553;28;20233;-64
2023/05/30 05:50:58;;;;;;;7.93;5.00;;;19.30;86.00;;;;;;6296118;28;20226;-64
2023/05/30 05:54:02;;;;;;;7.73;6.43;;;19.50;85.60;;;;;;6301565;28;20249;-64
2023/05/30 05:57:06;;;;;;;6.90;6.10;;;19.70;84.90;;;;;;6301304;28;20227;-64
2023/05/30 06:00:10;;;;;;;6.50;5.20;;;20.00;84.30;;;;;;6301983;28;20231;-64
2023/05/30 06:03:13;;;;;;;11.17;6.20;;;20.30;83.40;;;;;;6301495;28;20564;-63
2023/05/30 06:06:18;;;;;;;8.37;5.90;;;20.90;81.90;;;;;;6301535;28;20314;-64
2023/05/30 06:09:23;;;;;;;8.97;5.80;;;21.50;79.90;;;;;;6301232;28;20227;-63
2023/05/30 06:12:27;;;;;;;9.83;5.60;;;21.90;77.10;;;;;;6301315;28;20376;-64
2023/05/30 06:15:30;;;;;;;8.73;6.23;;;22.40;74.70;;;;;;6301078;28;20238;-64
2023/05/30 06:18:33;;;;;;;8.37;5.70;;;22.90;72.50;;;;;;6301195;28;20254;-64
2023/05/30 06:21:38;;;;;;;8.73;5.83;;;23.40;70.80;;;;;;6300963;28;20239;-64
2023/05/30 06:24:42;;;;;;;6.37;5.30;;;23.90;68.80;;;;;;6301119;28;20560;-64
2023/05/30 06:27:45;;;;;;;7.47;5.30;;;24.50;66.70;;;;;;6302391;28;20234;-64
2023/05/30 06:30:49;;;;;;;10.70;6.73;;;25.10;64.40;;;;;;6304113;28;20254;-64
2023/05/30 06:33:52;;;;;;;6.67;5.97;;;25.70;61.40;;;;;;6303048;28;20677;-64
2023/05/30 06:36:56;;;;;;;8.90;6.60;;;26.30;59.70;;;;;;6302394;28;20245;-64
2023/05/30 06:39:59;;;;;;;7.37;6.33;;;26.80;56.90;;;;;;6300546;28;20659;-64
2023/05/30 06:43:03;;;;;;;9.43;6.83;;;27.30;55.70;;;;;;6291595;28;20222;-64
2023/05/30 06:46:07;;;;;;;7.57;5.47;;;27.50;53.10;;;;;;6300521;28;20207;-64
2023/05/30 06:49:10;;;;;;;6.77;6.07;;;27.90;51.60;;;;;;6300504;28;20343;-65
2023/05/30 06:52:14;;;;;;;12.13;6.30;;;28.40;51.10;;;;;;6300517;28;20203;-65
2023/05/30 06:55:20;;;;;;;8.10;5.10;;;29.00;49.00;;;;;;6300305;28;20221;-65
2023/05/30 06:58:24;;;;;;;6.03;5.50;;;29.20;47.80;;;;;;6300311;28;20226;-64
2023/05/30 07:01:27;;;;;;;6.70;5.43;;;29.60;46.80;;;;;;6299126;28;20230;-63
2023/05/30 07:04:33;;;;;;;11.45;6.57;;;30.40;45.60;;;;;;6299699;28;20547;-64
2023/05/30 07:07:39;;;;;;;6.22;5.57;;;31.00;43.60;;;;;;6299736;28;20234;-64
2023/05/30 07:10:42;;;;;;;6.97;6.30;;;31.60;41.70;;;;;;6300068;28;20301;-64
2023/05/30 07:13:45;;;;;;;7.25;6.03;;;31.40;40.70;;;;;;6299516;28;20679;-65
2023/05/30 07:16:48;;;;;;;5.45;4.88;;;31.50;40.70;;;;;;6296839;28;20222;-65
2023/05/30 07:19:51;;;;;;;9.77;6.13;;;31.40;40.50;;;;;;6299894;28;20230;-66
2023/05/30 07:22:56;;;;;;;6.75;6.13;;;31.40;39.70;;;;;;6299264;28;20692;-65
2023/05/30 07:26:00;;;;;;;6.97;5.28;;;31.60;39.20;;;;;;6300033;28;20565;-65
2023/05/30 07:29:03;;;;;;;6.20;5.45;;;31.60;38.40;;;;;;6299022;28;20218;-65
2023/05/30 07:32:07;;;;;;;7.55;5.80;;;31.50;40.40;;;;;;6297301;28;20297;-65
2023/05/30 07:35:10;;;;;;;12.13;6.35;;;31.20;39.00;;;;;;6298603;28;20226;-65
2023/05/30 07:38:14;;;;;;;9.93;7.05;;;30.80;38.40;;;;;;6299429;28;20308;-65
2023/05/30 07:41:18;;;;;;;12.18;7.15;;;30.30;38.80;;;;;;6298416;28;20624;-67
2023/05/30 07:44:21;;;;;;;8.25;5.18;;;29.90;39.40;;;;;;6299326;28;20230;-67
2023/05/30 07:47:25;;;;;;;6.90;6.10;;;30.20;38.90;;;;;;6294509;28;20244;-68
2023/05/30 07:50:28;;;;;;;4.85;4.45;;;30.30;37.80;;;;;;6298937;28;20241;-66
2023/05/30 07:53:32;;;;;;;6.35;5.75;;;30.40;37.10;;;;;;6299101;28;20225;-67
2023/05/30 07:56:36;;;;;;;7.28;4.45;;;30.70;37.00;;;;;;6299474;28;20226;-68
2023/05/30 07:59:41;;;;;;;9.10;4.82;;;30.80;36.30;;;;;;6298827;28;20579;-67
2023/05/30 08:02:45;;;;;;;5.88;4.82;;;30.70;35.80;;;;;;6298200;28;20345;-67
2023/05/30 08:05:51;;;;;;;6.00;4.57;;;30.50;35.90;;;;;;6297787;28;20309;-66
2023/05/30 08:08:55;;;;;;;8.32;5.32;;;30.40;36.20;;;;;;6298572;28;20230;-65
2023/05/30 08:11:59;;;;;;;7.47;4.80;;;30.30;36.40;;;;;;6297240;28;20228;-66
2023/05/30 08:15:03;;;;;;;4.80;3.92;;;29.70;36.40;;;;;;6296550;28;20232;-66
2023/05/30 08:18:08;;;;;;;6.13;4.05;;;29.50;36.40;;;;;;6294486;28;20253;-67
2023/05/30 08:21:11;;;;;;;5.70;4.63;;;29.50;36.20;;;;;;6295803;28;20709;-69
2023/05/30 08:24:20;;;;;;;7.65;4.68;;;29.40;36.30;;;;;;6298201;28;20244;-69
2023/05/30 08:27:24;;;;;;;5.50;5.00;;;29.30;36.20;;;;;;6301806;28;20555;-67
2023/05/30 08:30:27;;;;;;;5.53;4.83;;;29.20;36.60;;;;;;6305926;28;20233;-68
2023/05/30 08:33:32;;;;;;;5.03;4.33;;;29.10;37.50;;;;;;6299845;28;20573;-68
2023/05/30 08:36:35;;;;;;;5.40;4.20;;;29.00;38.20;;;;;;6300519;28;20288;-68
2023/05/30 08:39:40;;;;;;;4.80;3.87;;;28.70;38.20;;;;;;6300301;28;20234;-67
2023/05/30 08:42:43;;;;;;;5.73;4.60;;;28.60;38.30;;;;;;6298304;28;20214;-66
2023/05/30 08:45:48;;;;;;;5.47;4.70;;;28.50;38.80;;;;;;6297706;28;20222;-67
2023/05/30 08:48:53;;;;;;;6.20;4.30;;;28.50;37.90;;;;;;6300943;28;20824;-69
2023/05/30 08:51:59;;;;;;;6.07;5.13;;;28.40;38.10;;;;;;6299854;28;20233;-68
2023/05/30 08:55:10;;;;;;;4.83;4.40;;;28.40;38.20;;;;;;6297540;28;20217;-68
2023/05/30 08:58:26;;;;;;;6.00;5.03;;;28.40;37.80;;;;;;6300092;28;20343;-69
2023/05/30 09:01:30;;;;;;;4.63;4.13;;;28.30;38.30;;;;;;6300114;28;20226;-68
2023/05/30 09:04:34;;;;;;;5.83;4.43;;;28.10;38.00;;;;;;6299522;28;20234;-69
2023/05/30 09:07:41;;;;;;;6.30;5.23;;;27.90;38.60;;;;;;6301766;28;20222;-69
2023/05/30 09:10:50;;;;;;;7.77;4.83;;;28.10;38.50;;;;;;6301964;28;20282;-69
2023/05/30 09:13:54;;;;;;;4.87;4.20;;;28.30;38.60;;;;;;6302456;28;20555;-68
2023/05/30 09:16:57;;;;;;;8.20;6.40;;;28.30;38.10;;;;;;6307242;28;20242;-68
2023/05/30 09:20:01;;;;;;;11.27;6.47;;;28.40;38.20;;;;;;6301937;28;20669;-67
2023/05/30 09:23:04;;;;;;;5.70;4.23;;;28.40;38.20;;;;;;6302147;28;20226;-68
2023/05/30 09:26:14;;;;;;;4.90;4.03;;;28.60;37.20;;;;;;6301925;28;20233;-69
2023/05/30 09:29:17;;;;;;;4.70;3.90;;;28.80;34.60;;;;;;6302163;28;20234;-69
2023/05/30 09:32:21;;;;;;;4.70;3.57;;;29.10;33.30;;;;;;6301927;28;20861;-69
2023/05/30 09:35:26;;;;;;;4.63;3.27;;;29.40;32.80;;;;;;6300627;28;20222;-68
2023/05/30 09:38:30;;;;;;;4.50;4.10;;;29.30;32.90;;;;;;6303615;28;20301;-68
2023/05/30 09:41:35;;;;;;;4.33;3.93;;;29.20;32.70;;;;;;6305298;28;20256;-68
2023/05/30 09:44:55;;;;;;;4.30;3.90;;;29.30;32.20;;;;;;6302026;28;20316;-68
2023/05/30 09:47:58;;;;;;;3.87;3.40;;;29.30;31.60;;;;;;6302092;28;20233;-70
2023/05/30 09:51:03;;;;;;;5.23;4.37;;;29.40;31.10;;;;;;6301180;28;20230;-68
2023/05/30 09:54:08;;;;;;;8.07;4.20;;;29.50;31.70;;;;;;6301724;28;20569;-69
2023/05/30 09:57:13;;;;;;;6.27;5.13;;;29.50;31.40;;;;;;6301811;28;20253;-69
2023/05/30 10:00:22;;;;;;;4.77;4.10;;;29.30;31.20;;;;;;6300646;28;20226;-69
2023/05/30 10:03:45;;;;;;;5.67;4.50;;;29.10;30.80;;;;;;6299317;28;20223;-67
2023/05/30 10:06:51;;;;;;;5.37;3.97;;;29.10;30.00;;;;;;6296790;28;20222;-67
2023/05/30 10:09:58;;;;;;;6.40;4.30;;;29.30;30.20;;;;;;6297140;28;20487;-67
2023/05/30 10:13:03;;;;;;;6.20;4.50;;;29.10;31.50;;;;;;6298382;28;20763;-67
2023/05/30 10:16:11;;;;;;;6.20;3.97;;;28.90;32.80;;;;;;6298301;28;20190;-67
2023/05/30 10:19:18;;;;;;;4.57;3.80;;;28.70;34.40;;;;;;6299289;28;20355;-66
2023/05/30 10:22:23;;;;;;;4.63;4.20;;;28.50;35.60;;;;;;6299739;28;20240;-68
2023/05/30 10:25:30;;;;;;;5.47;4.97;;;28.60;34.90;;;;;;6301489;28;20230;-68
2023/05/30 10:28:39;;;;;;;4.80;4.30;;;28.90;35.20;;;;;;6300627;28;21021;-67
2023/05/30 10:31:43;;;;;;;7.17;4.30;;;28.90;34.90;;;;;;6300593;28;20275;-67
2023/05/30 10:34:56;;;;;;;7.57;4.70;;;28.80;36.10;;;;;;6300263;28;20226;-67
2023/05/30 10:38:01;;;;;;;4.73;4.00;;;28.60;35.60;;;;;;6300562;28;20688;-67
2023/05/30 10:41:11;;;;;;;5.43;4.40;;;28.80;35.60;;;;;;6300023;28;20256;-67
2023/05/30 10:44:28;;;;;;;5.70;4.90;;;28.80;35.20;;;;;;6299879;28;20230;-67
2023/05/30 10:47:43;;;;;;;6.97;3.87;;;28.90;35.30;;;;;;6299644;28;20232;-67
2023/05/30 10:50:50;;;;;;;5.30;4.20;;;28.50;34.60;;;;;;6300404;28;20674;-67
2023/05/30 10:53:53;;;;;;;8.13;4.10;;;28.10;36.10;;;;;;6299680;28;20246;-67
2023/05/30 10:56:56;;;;;;;8.63;5.33;;;28.20;35.60;;;;;;6300243;28;20226;-67
2023/05/30 11:00:09;;;;;;;7.87;4.50;;;28.20;34.80;;;;;;6286017;28;20848;-67
2023/05/30 11:03:36;;;;;;;4.97;4.07;;;28.10;35.00;;;;;;6299867;28;20249;-67
2023/05/30 11:06:43;;;;;;;6.50;4.20;;;28.00;35.10;;;;;;6299218;28;20572;-67
2023/05/30 11:10:02;;;;;;;6.43;4.17;;;28.30;35.00;;;;;;6300007;28;20245;-68
2023/05/30 11:13:10;;;;;;;5.40;4.10;;;28.20;33.80;;;;;;6299212;28;20332;-67
2023/05/30 11:16:24;;;;;;;5.23;4.73;;;27.80;34.20;;;;;;6299508;28;20596;-67
2023/05/30 11:19:29;;;;;;;5.00;4.23;;;27.60;35.10;;;;;;6298986;28;20788;-66
2023/05/30 11:22:32;;;;;;;4.43;3.87;;;27.70;34.00;;;;;;6299342;28;20695;-67
2023/05/30 11:25:37;;;;;;;5.90;3.80;;;27.90;34.50;;;;;;6299273;28;20230;-67
2023/05/30 11:28:42;;;;;;;10.13;4.67;;;28.20;34.70;;;;;;6299414;28;20226;-67
2023/05/30 11:31:53;;;;;;;5.70;4.57;;;28.50;34.10;;;;;;6299107;28;20313;-69
2023/05/30 11:34:58;;;;;;;5.33;4.83;;;28.20;33.20;;;;;;6298969;28;20237;-69
2023/05/30 11:38:07;;;;;;;5.03;4.33;;;28.10;33.60;;;;;;6299592;28;20254;-70
2023/05/30 11:41:13;;;;;;;5.40;4.57;;;27.90;34.30;;;;;;6298799;28;20230;-68
2023/05/30 11:44:18;;;;;;;5.23;4.40;;;27.80;34.00;;;;;;6299242;28;20221;-68
2023/05/30 11:47:23;;;;;;;4.97;4.47;;;28.00;34.80;;;;;;6299367;28;20244;-67
2023/05/30 11:50:46;;;;;;;4.43;4.03;;;28.00;33.40;;;;;;6296909;28;20252;-70
2023/05/30 11:53:50;;;;;;;4.73;4.27;;;28.00;34.00;;;;;;6298773;28;20289;-68
2023/05/30 11:56:55;;;;;;;5.07;4.60;;;27.70;33.60;;;;;;6298372;28;20222;-67
2023/05/30 11:59:59;;;;;;;8.40;4.17;;;27.40;34.20;;;;;;6298785;28;20218;-67
2023/05/30 12:03:04;;;;;;;7.30;4.53;;;27.30;34.60;;;;;;6298816;28;20309;-68
2023/05/30 12:06:14;;;;;;;4.90;4.43;;;27.30;34.90;;;;;;6304193;28;20226;-66
2023/05/30 12:09:19;;;;;;;5.10;4.60;;;27.50;35.10;;;;;;6303427;28;20236;-66
2023/05/30 12:12:22;;;;;;;7.30;5.03;;;27.50;33.80;;;;;;6303617;28;20673;-66
2023/05/30 12:15:25;;;;;;;5.47;4.63;;;27.40;33.70;;;;;;6303334;28;20301;-69
2023/05/30 12:18:32;;;;;;;5.93;4.47;;;27.40;34.30;;;;;;6303941;28;20797;-68
2023/05/30 12:21:36;;;;;;;5.27;4.77;;;27.50;33.50;;;;;;6303270;28;20700;-66
2023/05/30 12:24:40;;;;;;;6.57;4.90;;;27.70;33.50;;;;;;6303079;28;20329;-67
2023/05/30 12:27:44;;;;;;;6.13;4.53;;;27.70;33.90;;;;;;6303319;28;20230;-65
2023/05/30 12:30:47;;;;;;;5.70;4.77;;;27.80;33.70;;;;;;6302572;28;20222;-68
2023/05/30 12:33:52;;;;;;;6.03;5.10;;;27.90;34.00;;;;;;6302645;28;20218;-68
2023/05/30 12:36:56;;;;;;;5.47;4.93;;;27.60;33.90;;;;;;6302768;28;20305;-67
2023/05/30 12:40:02;;;;;;;6.13;4.33;;;27.40;34.20;;;;;;6302616;28;20248;-67
2023/05/30 12:43:05;;;;;;;4.53;4.13;;;27.30;34.20;;;;;;6303226;28;20236;-68
2023/05/30 12:46:09;;;;;;;5.00;4.50;;;26.60;35.00;;;;;;6303063;28;20834;-66
2023/05/30 12:49:14;;;;;;;5.90;5.10;;;26.30;35.50;;;;;;6302520;28;20226;-66
2023/05/30 12:52:21;;;;;;;5.23;4.73;;;26.50;36.50;;;;;;6302362;28;20213;-66
2023/05/30 12:55:24;;;;;;;6.20;4.77;;;27.00;36.40;;;;;;6302472;28;20229;-68
2023/05/30 12:58:27;;;;;;;4.90;4.50;;;27.20;35.30;;;;;;6302368;28;20309;-67
2023/05/30 13:01:30;;;;;;;6.30;5.00;;;27.40;35.50;;;;;;6302707;28;20317;-68
2023/05/30 13:04:37;;;;;;;7.87;5.10;;;27.60;35.20;;;;;;6302547;28;20230;-69
2023/05/30 13:07:40;;;;;;;6.33;4.83;;;27.80;35.30;;;;;;6303768;28;20331;-67
2023/05/30 13:10:44;;;;;;;4.90;4.50;;;28.00;34.20;;;;;;6303523;28;20226;-68
2023/05/30 13:13:47;;;;;;;6.40;4.23;;;27.50;35.00;;;;;;6302456;28;20232;-68
2023/05/30 13:16:50;;;;;;;6.67;4.87;;;27.30;35.70;;;;;;6301315;28;20680;-66
2023/05/30 13:19:55;;;;;;;5.33;4.30;;;27.60;35.80;;;;;;6303204;28;20232;-67
2023/05/30 13:22:58;;;;;;;5.33;4.23;;;28.10;34.70;;;;;;6302542;28;20305;-69
2023/05/30 13:26:03;;;;;;;4.80;4.40;;;28.40;34.50;;;;;;6302009;28;20226;-67
2023/05/30 13:29:09;;;;;;;6.17;4.80;;;28.30;34.10;;;;;;6302011;28;20614;-67
2023/05/30 13:32:12;;;;;;;5.33;4.83;;;28.10;34.30;;;;;;6302409;28;20237;-68
2023/05/30 13:35:17;;;;;;;7.73;4.20;;;27.70;34.90;;;;;;6301569;28;20230;-67
2023/05/30 13:38:20;;;;;;;5.60;5.10;;;27.40;36.20;;;;;;6302478;28;20267;-67
2023/05/30 13:41:25;;;;;;;6.17;4.87;;;27.60;37.00;;;;;;6301262;28;20234;-67
2023/05/30 13:44:30;;;;;;;4.83;4.33;;;27.70;35.50;;;;;;6301492;28;20230;-67
2023/05/30 13:47:33;;;;;;;5.30;4.80;;;27.60;35.70;;;;;;6301476;28;20391;-67
2023/05/30 13:50:38;;;;;;;5.53;4.60;;;27.60;35.40;;;;;;6301118;28;20371;-67
2023/05/30 13:53:42;;;;;;;6.10;4.97;;;27.50;35.80;;;;;;6275963;28;20301;-68
2023/05/30 13:56:48;;;;;;;5.43;4.93;;;27.10;36.00;;;;;;6278354;28;20234;-67
2023/05/30 13:59:51;;;;;;;5.67;5.00;;;26.90;36.30;;;;;;6276956;28;20235;-68
2023/05/30 14:02:54;;;;;;;6.33;5.07;;;26.60;36.50;;;;;;6276997;28;20227;-68
2023/05/30 14:05:59;;;;;;;5.20;4.70;;;26.50;36.90;;;;;;6277145;28;20235;-68
2023/05/30 14:09:04;;;;;;;5.27;4.77;;;26.30;37.40;;;;;;6277036;28;20368;-67
2023/05/30 14:12:08;;;;;;;5.20;4.53;;;26.20;37.70;;;;;;6275711;28;20237;-67
2023/05/30 14:15:12;;;;;;;6.07;5.47;;;26.40;38.00;;;;;;6281228;28;20549;-68
2023/05/30 14:18:17;;;;;;;6.23;4.70;;;26.50;37.60;;;;;;6278106;28;20223;-68
2023/05/30 14:21:22;;;;;;;6.20;5.17;;;26.20;37.50;;;;;;6277643;28;20566;-67
2023/05/30 14:24:25;;;;;;;5.50;5.00;;;26.20;37.60;;;;;;6293906;28;20663;-66
2023/05/30 14:27:30;;;;;;;8.43;5.27;;;26.20;38.00;;;;;;6283408;28;20226;-69
2023/05/30 14:30:33;;;;;;;5.60;5.03;;;26.10;38.20;;;;;;6300819;28;20230;-68
2023/05/30 14:33:36;;;;;;;6.43;5.63;;;25.90;38.30;;;;;;6300570;28;20678;-68
2023/05/30 14:36:41;;;;;;;8.47;5.37;;;25.70;38.80;;;;;;6301002;28;20957;-68
2023/05/30 14:39:45;;;;;;;8.50;5.10;;;25.60;39.10;;;;;;6300238;28;20727;-67
2023/05/30 14:42:48;;;;;;;7.67;4.80;;;25.60;38.80;;;;;;6300354;28;20244;-67
2023/05/30 14:45:51;;;;;;;5.63;5.13;;;25.80;38.90;;;;;;6300679;28;20696;-67
2023/05/30 14:48:54;;;;;;;6.07;4.90;;;26.10;38.30;;;;;;6299812;28;20565;-67
2023/05/30 14:52:00;;;;;;;5.60;4.50;;;26.30;38.30;;;;;;6299894;28;20222;-68
2023/05/30 14:55:04;;;;;;;6.30;5.00;;;26.00;38.10;;;;;;6300289;28;20305;-66
2023/05/30 14:58:07;;;;;;;4.90;4.50;;;25.90;38.50;;;;;;6300477;28;20283;-67
2023/05/30 15:01:11;;;;;;;8.40;5.17;;;26.00;38.80;;;;;;6300227;28;20221;-64
2023/05/30 15:04:37;;;;;;;6.83;5.03;;;26.10;38.50;;;;;;6300522;28;20229;-66
2023/05/30 15:07:42;;;;;;;5.80;4.63;;;25.90;38.90;;;;;;6300204;28;20372;-66
2023/05/30 15:10:46;;;;;;;5.53;5.00;;;25.90;38.80;;;;;;6299821;28;20284;-66
2023/05/30 15:13:49;;;;;;;5.83;5.23;;;26.00;38.60;;;;;;6291033;28;20233;-66
2023/05/30 15:16:52;;;;;;;5.17;4.77;;;26.10;38.60;;;;;;6299312;28;20251;-66
2023/05/30 15:19:55;;;;;;;6.90;5.20;;;26.10;38.60;;;;;;6300011;28;20230;-66
2023/05/30 15:23:00;;;;;;;5.63;5.03;;;25.90;38.40;;;;;;6300792;28;20222;-66
2023/05/30 15:26:03;;;;;;;5.07;4.57;;;25.70;39.70;;;;;;6300809;28;20226;-67
2023/05/30 15:29:06;;;;;;;7.37;5.27;;;25.70;39.60;;;;;;6300352;28;20241;-67
2023/05/30 15:32:10;;;;;;;6.23;5.63;;;25.60;39.80;;;;;;6299725;28;20642;-67
2023/05/30 15:35:13;;;;;;;5.83;4.70;;;25.60;39.30;;;;;;6299793;28;20234;-67
2023/05/30 15:38:17;;;;;;;6.63;5.17;;;25.40;39.40;;;;;;6299527;28;20233;-68
2023/05/30 15:41:21;;;;;;;7.03;5.27;;;25.20;40.00;;;;;;6299251;28;20317;-68
2023/05/30 15:44:24;;;;;;;8.73;5.77;;;25.20;40.00;;;;;;6299721;28;20226;-68
2023/05/30 15:47:27;;;;;;;7.37;5.40;;;25.20;40.00;;;;;;6299547;28;20286;-68
2023/05/30 15:50:30;;;;;;;9.57;5.03;;;25.40;40.10;;;;;;6299504;28;20262;-68
2023/05/30 15:53:37;;;;;;;5.40;4.90;;;25.60;39.50;;;;;;6299080;28;20222;-67
2023/05/30 15:56:41;;;;;;;5.40;4.60;;;25.60;39.50;;;;;;6299105;28;20551;-68
2023/05/30 15:59:44;;;;;;;5.90;5.40;;;25.50;39.70;;;;;;6299375;28;20308;-67
2023/05/30 16:02:47;;;;;;;4.70;4.27;;;25.40;39.90;;;;;;6298782;28;20228;-68